Etusivu
METAR-TAF:

METAR-TAF

Lentoasemat :

Prairie du Chien Municipal Airport

Prairie du Chien, Wisconsin, Yhdysvallat

Leveyspiiri: 43-01-19N, Pituuspiiri: 091-07-29W, korkeus merenpinnasta: 201 m

Tämänhetkinen sää

Tämä raportti tehtiin 23 minuuttia sitten, kello 04.35 UTC
Tuuli 10 kn pohjoisen/luoteesta
Lämpötila 11°C
Kosteus 100%
Ilmanpaine 1012 hPa
Näkyvyys: 16.1 km
Pilvistä 900 ft:n korkeudessa
heikkoa tihkusadetta

METAR: KPDC 230435Z AUTO 33010KT 10SM -DZ OVC009 11/11 A2989 RMK AO2 T01100105

Aika: 23:58 (04:58 UTC)


TAF: puuttuu

Säähavainnot ja -ennusteet yli 4000 lentoasemalta (METAR- ja TAF-raportit).

Käytössä olevat sääasemat on merkitty karttaan keltaisilla ja punaisilla pisteillä.

Aseta hiiri pisteen päälle nähdäksesi sääaseman nimen.

Klikkaa sitten nähdäksesi säähavainnot ja -ennusteet.

Kartan vaihtaminen: klikkaa mustalla rastilla varustettuja vihreitä pisteitä, niin voit zoomata sisään; viivalla varustettua vihreää pistettä, niin voit zoomata ulos tai vihreitä nuolia, niin pääset viereisille kartoille.


METAR-TAF: